SECU/CUE METAR and TAF weather

Enter ICAO airport designator
Station Type Date Time Source
SECU METAR 2019/02/20 23:00 UTC NOAA

SECU 202300Z 05009KT 9999 BKN040 18/10 Q1022


Station Type Date Time Source
SECU Decoded METAR 2019/02/20 23:00 UTC NOAA

Cuenca / Mariscal Lamar, Ecuador (SECU) 02-53S 078-59W 2531M
Feb 20, 2019 - 06:00 PM EST / 2019.02.20 2300 UTC
Wind: from the NE (050 degrees) at 10 MPH (9 KT):0
Visibility: greater than 7 mile(s):0
Sky conditions: mostly cloudy
Temperature: 64 F (18 C)
Dew Point: 50 F (10 C)
Relative Humidity: 59%
Pressure (altimeter): 30.18 in. Hg (1022 hPa)
ob: SECU 202300Z 05009KT 9999 BKN040 18/10 Q1022
cycle: 23

Station Type Date Time Source
SECU TAF 2018/11/24 06:33 UTC NOAA

SECU 240430Z 2406/2506 VRB03KT 9999 OVC033
BECMG 2414/2415 SCT040 SCT100
FM241800 23010KT 9999 BKN040 SCT100
TEMPO 2420/2422 SHRA
FM250000 22006KT 9999 BKN033 TX23/2419Z TN12/2411Z


Example: see airport list